Kezdőlap
METAR-TAF:

METAR-TAF

Repülőterek :

Kartúm, Szudán

földrajzi szélesség: 15-36N, földrajzi hosszúság: 032-33E, magasság: 382 m

Jelenlegi meteorológiai megfigyelések

A jelentés 20 perccel ezelõtt készült, 05:00 UTC
Északi szél 12 kt
Hőmérséklet 17°C
Páratartalom 32%
Légköri nyomás 1019 hPa
Látótávolság 10 km, vagy több
felhőtlen 1500 m magasságban, és nincs gomolyfelhõ

METAR: HSSS 100500Z 36012KT CAVOK 17/00 Q1019 TEMPO 5000

Idő: 08:20 (05:20 UTC)

Előrejelzés

A jelentés 6 órával és 20 perccel ezelõtt készült, 23:00 UTC
Az előrejelzés 10-én 00 óra UTC és 11-én 06 óra UTC között érvényes
Észak-északnyugati szél 10 kt széllökések: 20 kt
Látótávolság 10 km, vagy több
felhőtlen 1500 m magasságban, és nincs gomolyfelhõ
10-én 04 óra UTC és 10-én 08 óra UTC között ideiglenes
Látótávolság: 6000 m

TAF: HSSS 092300Z 1000/1106 34010G20KT CAVOK TEMPO 1004/1008 6000

Meteorológiai megfigyelések és előrejelzések több, mint 4000 repülőtéren (METAR és TAF jelentéseket).

A térképen piros és sárga pontok jelzik az elérhető meteorológiai állomásokat.

Mozgassa az egeret a pont fölött, hogy megjelenjen az állomás neve.

Azután kattintson az időjárási megfigyelések és előrejelzések megtekintéséhez.

A térkép megváltoztatása: kattintson a fekete keresztel jelölt zöld gombra ráközelítéshez, a vonallal jelölt zöld gombra távolításhoz, vagy a zöld nyilakra a szomszédos térképek eléréséhez.


METAR-TAF: